الصفحة الرئيسية
METAR-TAF:

METAR-TAF

مطار :

كوستناي, كازاخستان

دائرة عرض: 53-12-23N, خط طول: 063-33-03E, ارتفاع: 182 متر

مراقبة الطقس الحالي

تاريخ ووقت الإصدار 43 دقيقة قبل الساعة 09:30UTC
ريح 8 عقدة من الشمال/الشمال الغربي
درجة الحرارة -5°درجة مئوية
الرطوبة 73%
ضغط 1034 hPa
الرؤية 10 كم أو أكثر
غيوم متفرقة على ارتفاع 3300 قدم

METAR: UAUU 020930Z 33004MPS 9999 SCT033 M05/M09 Q1034 NOSIG RMK QFE759/1013

زمن: 16:13 (10:13 UTC)

توقعات

تاريخ ووقت الإصدار 2ساعات و 10 دقيقة قبل الساعة 08:03UTC
التوقعات صالحة من02 الساعة 09 UTC إلى 02 الساعة 18 UTC
ريح 6 عقدة من الشمال
الرؤية 10 كم أو أكثر
غيوم مفككة على ارتفاع 2000 قدم
مؤقت
من 02 الساعة 09 UTC إلى 02 الساعة 18 UTC
ريح 4 عقدةمن اتجاهات متغيرة
غيوم متفرقة على ارتفاع 1100 قدم

TAF: UAUU 020803Z 0209/0218 36003MPS 9999 BKN020 TEMPO 0209/0218 VRB02MPS SCT011

أرصاد الطقس والتوقعات من أكثر من 4000 مطار (تقارير الطقس للمطار METAR والتنبؤ بالطقس بالمطارTAF).

المحطات المتاحة هي النقط الصفراء والحمراء على الخريطة.

حرك المؤشر فوق النقطة لمعرفة اسم المحطة.

ثم انقر لمعرفة أرصاد وتوقعات الطقس.

لتغيير الخارطة: اضغط على الأزرار الخضراء مع رمز الصليب الأسود للتكبير. على الزر الأخضر مع شرطة للتصغير، أو على الأسهم الخضراء للخرائط المجاورة.


METAR-TAF: